sensor_id;sensor_type;location;lat;lon;timestamp;P1;durP1;ratioP1;P2;durP2;ratioP2
64623;SDS011;51031;50.912;9.242;2022-07-29T00:00:10;51.70;;;31.87;;
64623;SDS011;51031;50.912;9.242;2022-07-29T00:00:26;85.65;;;56.78;;
64623;SDS011;51031;50.912;9.242;2022-07-29T00:00:42;47.45;;;30.45;;
64623;SDS011;51031;50.912;9.242;2022-07-29T00:01:01;10.70;;;5.35;;
64623;SDS011;51031;50.912;9.242;2022-07-29T00:01:17;19.75;;;11.40;;
64623;SDS011;51031;50.912;9.242;2022-07-29T00:01:33;42.92;;;28.70;;
64623;SDS011;51031;50.912;9.242;2022-07-29T00:01:49;43.63;;;28.40;;
64623;SDS011;51031;50.912;9.242;2022-07-29T00:02:07;17.63;;;8.60;;
64623;SDS011;51031;50.912;9.242;2022-07-29T00:02:26;63.78;;;41.50;;
64623;SDS011;51031;50.912;9.242;2022-07-29T00:02:42;70.10;;;46.05;;
64623;SDS011;51031;50.912;9.242;2022-07-29T00:02:58;37.33;;;23.13;;
64623;SDS011;51031;50.912;9.242;2022-07-29T00:03:14;55.53;;;36.58;;
64623;SDS011;51031;50.912;9.242;2022-07-29T00:03:30;84.55;;;56.70;;
64623;SDS011;51031;50.912;9.242;2022-07-29T00:03:45;118.95;;;81.47;;
64623;SDS011;51031;50.912;9.242;2022-07-29T00:04:02;117.32;;;81.65;;
64623;SDS011;51031;50.912;9.242;2022-07-29T00:04:18;73.00;;;49.63;;
64623;SDS011;51031;50.912;9.242;2022-07-29T00:04:35;83.00;;;56.22;;
64623;SDS011;51031;50.912;9.242;2022-07-29T00:04:51;100.88;;;68.85;;
64623;SDS011;51031;50.912;9.242;2022-07-29T00:05:07;82.80;;;56.42;;
64623;SDS011;51031;50.912;9.242;2022-07-29T00:05:28;32.75;;;20.27;;
64623;SDS011;51031;50.912;9.242;2022-07-29T00:05:44;34.08;;;20.48;;
64623;SDS011;51031;50.912;9.242;2022-07-29T00:06:36;25.70;;;16.23;;
64623;SDS011;51031;50.912;9.242;2022-07-29T00:06:52;35.00;;;21.73;;
64623;SDS011;51031;50.912;9.242;2022-07-29T00:07:09;46.13;;;28.45;;
64623;SDS011;51031;50.912;9.242;2022-07-29T00:07:25;33.33;;;18.75;;
64623;SDS011;51031;50.912;9.242;2022-07-29T00:07:41;45.97;;;29.43;;
64623;SDS011;51031;50.912;9.242;2022-07-29T00:07:57;43.78;;;29.63;;
64623;SDS011;51031;50.912;9.242;2022-07-29T00:08:13;71.22;;;48.40;;
64623;SDS011;51031;50.912;9.242;2022-07-29T00:08:30;112.57;;;77.03;;
64623;SDS011;51031;50.912;9.242;2022-07-29T00:08:46;81.80;;;55.58;;
64623;SDS011;51031;50.912;9.242;2022-07-29T00:09:02;37.40;;;25.70;;
64623;SDS011;51031;50.912;9.242;2022-07-29T00:09:18;29.92;;;20.10;;
64623;SDS011;51031;50.912;9.242;2022-07-29T00:09:35;72.43;;;49.67;;
64623;SDS011;51031;50.912;9.242;2022-07-29T00:09:50;78.43;;;53.93;;
64623;SDS011;51031;50.912;9.242;2022-07-29T00:10:06;70.97;;;49.67;;
64623;SDS011;51031;50.912;9.242;2022-07-29T00:10:23;99.00;;;69.25;;
64623;SDS011;51031;50.912;9.242;2022-07-29T00:10:38;90.55;;;62.30;;
64623;SDS011;51031;50.912;9.242;2022-07-29T00:10:55;87.88;;;60.13;;
64623;SDS011;51031;50.912;9.242;2022-07-29T00:11:11;98.32;;;68.53;;
64623;SDS011;51031;50.912;9.242;2022-07-29T00:11:27;53.07;;;36.63;;
64623;SDS011;51031;50.912;9.242;2022-07-29T00:11:42;30.65;;;19.33;;
64623;SDS011;51031;50.912;9.242;2022-07-29T00:11:59;75.07;;;51.42;;
64623;SDS011;51031;50.912;9.242;2022-07-29T00:12:16;91.75;;;62.90;;
64623;SDS011;51031;50.912;9.242;2022-07-29T00:12:33;94.43;;;63.15;;
64623;SDS011;51031;50.912;9.242;2022-07-29T00:12:48;109.00;;;74.38;;
64623;SDS011;51031;50.912;9.242;2022-07-29T00:13:04;56.38;;;37.45;;
64623;SDS011;51031;50.912;9.242;2022-07-29T00:13:20;23.63;;;13.27;;
64623;SDS011;51031;50.912;9.242;2022-07-29T00:13:36;72.53;;;48.10;;
64623;SDS011;51031;50.912;9.242;2022-07-29T00:13:53;82.38;;;56.35;;
64623;SDS011;51031;50.912;9.242;2022-07-29T00:14:09;30.95;;;20.35;;
64623;SDS011;51031;50.912;9.242;2022-07-29T00:14:25;19.50;;;11.90;;
64623;SDS011;51031;50.912;9.242;2022-07-29T00:14:41;19.67;;;10.88;;
64623;SDS011;51031;50.912;9.242;2022-07-29T00:14:59;34.95;;;21.75;;
64623;SDS011;51031;50.912;9.242;2022-07-29T00:15:15;68.13;;;46.25;;
64623;SDS011;51031;50.912;9.242;2022-07-29T00:15:31;79.97;;;54.25;;
64623;SDS011;51031;50.912;9.242;2022-07-29T00:15:47;53.30;;;35.00;;
64623;SDS011;51031;50.912;9.242;2022-07-29T00:16:04;40.70;;;24.60;;
64623;SDS011;51031;50.912;9.242;2022-07-29T00:16:20;40.03;;;24.10;;
64623;SDS011;51031;50.912;9.242;2022-07-29T00:16:38;50.22;;;34.40;;
64623;SDS011;51031;50.912;9.242;2022-07-29T00:16:56;31.27;;;20.80;;
64623;SDS011;51031;50.912;9.242;2022-07-29T00:17:12;52.33;;;35.38;;
64623;SDS011;51031;50.912;9.242;2022-07-29T00:17:28;44.25;;;29.85;;
64623;SDS011;51031;50.912;9.242;2022-07-29T00:17:43;16.60;;;8.85;;
64623;SDS011;51031;50.912;9.242;2022-07-29T00:18:00;18.88;;;10.00;;
64623;SDS011;51031;50.912;9.242;2022-07-29T00:18:16;29.73;;;19.05;;
64623;SDS011;51031;50.912;9.242;2022-07-29T00:18:32;34.22;;;22.33;;
64623;SDS011;51031;50.912;9.242;2022-07-29T00:18:50;40.55;;;27.10;;
64623;SDS011;51031;50.912;9.242;2022-07-29T00:19:05;42.42;;;27.92;;
64623;SDS011;51031;50.912;9.242;2022-07-29T00:19:22;27.75;;;17.15;;
64623;SDS011;51031;50.912;9.242;2022-07-29T00:19:38;30.50;;;19.80;;
64623;SDS011;51031;50.912;9.242;2022-07-29T00:19:54;72.68;;;49.97;;
64623;SDS011;51031;50.912;9.242;2022-07-29T00:20:10;102.38;;;69.60;;
64623;SDS011;51031;50.912;9.242;2022-07-29T00:20:26;88.43;;;60.83;;
64623;SDS011;51031;50.912;9.242;2022-07-29T00:20:43;87.97;;;60.95;;
64623;SDS011;51031;50.912;9.242;2022-07-29T00:20:59;92.40;;;64.32;;
64623;SDS011;51031;50.912;9.242;2022-07-29T00:21:14;54.03;;;35.47;;
64623;SDS011;51031;50.912;9.242;2022-07-29T00:21:30;43.90;;;27.45;;
64623;SDS011;51031;50.912;9.242;2022-07-29T00:21:46;75.80;;;51.53;;
64623;SDS011;51031;50.912;9.242;2022-07-29T00:22:02;76.50;;;53.40;;
64623;SDS011;51031;50.912;9.242;2022-07-29T00:22:19;33.60;;;22.42;;
64623;SDS011;51031;50.912;9.242;2022-07-29T00:22:36;25.15;;;15.25;;
64623;SDS011;51031;50.912;9.242;2022-07-29T00:22:52;42.33;;;28.15;;
64623;SDS011;51031;50.912;9.242;2022-07-29T00:23:10;69.07;;;48.13;;
64623;SDS011;51031;50.912;9.242;2022-07-29T00:23:26;69.35;;;48.80;;
64623;SDS011;51031;50.912;9.242;2022-07-29T00:23:43;52.08;;;34.78;;
64623;SDS011;51031;50.912;9.242;2022-07-29T00:23:59;42.28;;;27.25;;
64623;SDS011;51031;50.912;9.242;2022-07-29T00:24:14;47.73;;;32.33;;
64623;SDS011;51031;50.912;9.242;2022-07-29T00:24:30;48.30;;;32.22;;
64623;SDS011;51031;50.912;9.242;2022-07-29T00:24:46;46.33;;;30.70;;
64623;SDS011;51031;50.912;9.242;2022-07-29T00:25:03;41.92;;;28.10;;
64623;SDS011;51031;50.912;9.242;2022-07-29T00:25:20;39.72;;;26.92;;
64623;SDS011;51031;50.912;9.242;2022-07-29T00:25:36;47.47;;;32.87;;
64623;SDS011;51031;50.912;9.242;2022-07-29T00:25:52;51.70;;;34.30;;
64623;SDS011;51031;50.912;9.242;2022-07-29T00:26:07;44.78;;;29.10;;
64623;SDS011;51031;50.912;9.242;2022-07-29T00:26:23;40.50;;;27.30;;
64623;SDS011;51031;50.912;9.242;2022-07-29T00:26:42;40.92;;;25.98;;
64623;SDS011;51031;50.912;9.242;2022-07-29T00:26:58;26.30;;;16.42;;
64623;SDS011;51031;50.912;9.242;2022-07-29T00:27:14;26.33;;;16.80;;
64623;SDS011;51031;50.912;9.242;2022-07-29T00:27:30;23.27;;;13.50;;
64623;SDS011;51031;50.912;9.242;2022-07-29T00:27:46;39.42;;;25.73;;
64623;SDS011;51031;50.912;9.242;2022-07-29T00:28:02;64.93;;;45.65;;
64623;SDS011;51031;50.912;9.242;2022-07-29T00:28:18;80.80;;;56.83;;
64623;SDS011;51031;50.912;9.242;2022-07-29T00:28:34;66.37;;;46.13;;
64623;SDS011;51031;50.912;9.242;2022-07-29T00:28:50;39.95;;;27.45;;
64623;SDS011;51031;50.912;9.242;2022-07-29T00:29:06;33.20;;;21.45;;
64623;SDS011;51031;50.912;9.242;2022-07-29T00:29:22;31.08;;;20.17;;
64623;SDS011;51031;50.912;9.242;2022-07-29T00:29:38;34.00;;;22.52;;
64623;SDS011;51031;50.912;9.242;2022-07-29T00:29:54;73.30;;;50.30;;
64623;SDS011;51031;50.912;9.242;2022-07-29T00:30:10;77.68;;;53.50;;
64623;SDS011;51031;50.912;9.242;2022-07-29T00:30:27;48.13;;;32.25;;
64623;SDS011;51031;50.912;9.242;2022-07-29T00:30:42;49.33;;;32.25;;
64623;SDS011;51031;50.912;9.242;2022-07-29T00:30:58;37.25;;;23.15;;
64623;SDS011;51031;50.912;9.242;2022-07-29T00:31:16;41.53;;;27.10;;
64623;SDS011;51031;50.912;9.242;2022-07-29T00:31:32;54.55;;;38.00;;
64623;SDS011;51031;50.912;9.242;2022-07-29T00:31:48;28.42;;;19.40;;
64623;SDS011;51031;50.912;9.242;2022-07-29T00:32:04;19.38;;;11.88;;
64623;SDS011;51031;50.912;9.242;2022-07-29T00:32:21;33.50;;;20.95;;
64623;SDS011;51031;50.912;9.242;2022-07-29T00:32:37;52.50;;;33.97;;
64623;SDS011;51031;50.912;9.242;2022-07-29T00:32:53;25.63;;;15.98;;
64623;SDS011;51031;50.912;9.242;2022-07-29T00:33:09;47.57;;;31.07;;
64623;SDS011;51031;50.912;9.242;2022-07-29T00:33:25;83.50;;;56.63;;
64623;SDS011;51031;50.912;9.242;2022-07-29T00:33:41;45.60;;;30.67;;
64623;SDS011;51031;50.912;9.242;2022-07-29T00:33:56;23.23;;;14.30;;
64623;SDS011;51031;50.912;9.242;2022-07-29T00:34:13;35.72;;;23.58;;
64623;SDS011;51031;50.912;9.242;2022-07-29T00:34:44;81.30;;;56.10;;
64623;SDS011;51031;50.912;9.242;2022-07-29T00:35:18;41.80;;;27.73;;
64623;SDS011;51031;50.912;9.242;2022-07-29T00:35:53;64.57;;;43.25;;
64623;SDS011;51031;50.912;9.242;2022-07-29T00:36:08;80.57;;;54.90;;
64623;SDS011;51031;50.912;9.242;2022-07-29T00:36:24;45.22;;;29.13;;
64623;SDS011;51031;50.912;9.242;2022-07-29T00:36:40;24.20;;;13.97;;
64623;SDS011;51031;50.912;9.242;2022-07-29T00:36:56;27.42;;;17.67;;
64623;SDS011;51031;50.912;9.242;2022-07-29T00:37:11;29.05;;;19.70;;
64623;SDS011;51031;50.912;9.242;2022-07-29T00:37:27;28.80;;;19.27;;
64623;SDS011;51031;50.912;9.242;2022-07-29T00:37:43;37.10;;;24.50;;
64623;SDS011;51031;50.912;9.242;2022-07-29T00:38:00;48.53;;;32.28;;
64623;SDS011;51031;50.912;9.242;2022-07-29T00:38:16;54.88;;;36.60;;
64623;SDS011;51031;50.912;9.242;2022-07-29T00:38:33;62.30;;;42.42;;
64623;SDS011;51031;50.912;9.242;2022-07-29T00:38:50;54.55;;;37.60;;
64623;SDS011;51031;50.912;9.242;2022-07-29T00:39:07;35.13;;;23.05;;
64623;SDS011;51031;50.912;9.242;2022-07-29T00:39:23;17.63;;;10.37;;
64623;SDS011;51031;50.912;9.242;2022-07-29T00:39:39;40.97;;;28.13;;
64623;SDS011;51031;50.912;9.242;2022-07-29T00:39:54;54.38;;;38.47;;
64623;SDS011;51031;50.912;9.242;2022-07-29T00:40:10;35.97;;;24.25;;
64623;SDS011;51031;50.912;9.242;2022-07-29T00:40:27;66.53;;;44.78;;
64623;SDS011;51031;50.912;9.242;2022-07-29T00:40:44;70.07;;;47.22;;
64623;SDS011;51031;50.912;9.242;2022-07-29T00:41:00;31.13;;;19.05;;
64623;SDS011;51031;50.912;9.242;2022-07-29T00:41:16;26.30;;;15.50;;
64623;SDS011;51031;50.912;9.242;2022-07-29T00:41:33;16.00;;;9.45;;
64623;SDS011;51031;50.912;9.242;2022-07-29T00:41:49;14.73;;;8.52;;
64623;SDS011;51031;50.912;9.242;2022-07-29T00:42:06;32.60;;;21.23;;
64623;SDS011;51031;50.912;9.242;2022-07-29T00:42:23;48.97;;;32.65;;
64623;SDS011;51031;50.912;9.242;2022-07-29T00:42:42;54.42;;;35.55;;
64623;SDS011;51031;50.912;9.242;2022-07-29T00:42:58;28.98;;;16.08;;
64623;SDS011;51031;50.912;9.242;2022-07-29T00:43:15;32.40;;;20.23;;
64623;SDS011;51031;50.912;9.242;2022-07-29T00:43:32;23.00;;;13.75;;
64623;SDS011;51031;50.912;9.242;2022-07-29T00:43:48;20.15;;;11.50;;
64623;SDS011;51031;50.912;9.242;2022-07-29T00:44:04;43.90;;;29.08;;
64623;SDS011;51031;50.912;9.242;2022-07-29T00:44:20;65.23;;;44.03;;
64623;SDS011;51031;50.912;9.242;2022-07-29T00:44:37;74.47;;;49.72;;
64623;SDS011;51031;50.912;9.242;2022-07-29T00:44:53;63.45;;;41.95;;
64623;SDS011;51031;50.912;9.242;2022-07-29T00:45:11;37.67;;;23.88;;
64623;SDS011;51031;50.912;9.242;2022-07-29T00:45:29;23.40;;;13.32;;
64623;SDS011;51031;50.912;9.242;2022-07-29T00:45:45;28.90;;;16.92;;
64623;SDS011;51031;50.912;9.242;2022-07-29T00:46:02;33.17;;;21.42;;
64623;SDS011;51031;50.912;9.242;2022-07-29T00:46:19;63.30;;;43.08;;
64623;SDS011;51031;50.912;9.242;2022-07-29T00:46:35;63.88;;;42.60;;
64623;SDS011;51031;50.912;9.242;2022-07-29T00:46:50;22.13;;;13.10;;
64623;SDS011;51031;50.912;9.242;2022-07-29T00:47:06;17.70;;;8.90;;
64623;SDS011;51031;50.912;9.242;2022-07-29T00:47:25;16.55;;;9.00;;
64623;SDS011;51031;50.912;9.242;2022-07-29T00:47:42;22.95;;;14.65;;
64623;SDS011;51031;50.912;9.242;2022-07-29T00:47:58;32.70;;;20.38;;
64623;SDS011;51031;50.912;9.242;2022-07-29T00:48:13;45.97;;;31.00;;
64623;SDS011;51031;50.912;9.242;2022-07-29T00:48:29;37.80;;;25.73;;
64623;SDS011;51031;50.912;9.242;2022-07-29T00:48:46;29.52;;;16.85;;
64623;SDS011;51031;50.912;9.242;2022-07-29T00:49:02;30.02;;;16.77;;
64623;SDS011;51031;50.912;9.242;2022-07-29T00:49:18;24.75;;;13.40;;
64623;SDS011;51031;50.912;9.242;2022-07-29T00:49:34;26.33;;;15.77;;
64623;SDS011;51031;50.912;9.242;2022-07-29T00:49:50;32.63;;;19.83;;
64623;SDS011;51031;50.912;9.242;2022-07-29T00:50:07;29.27;;;17.27;;
64623;SDS011;51031;50.912;9.242;2022-07-29T00:50:25;19.30;;;11.65;;
64623;SDS011;51031;50.912;9.242;2022-07-29T00:50:41;16.42;;;9.98;;
64623;SDS011;51031;50.912;9.242;2022-07-29T00:50:57;23.23;;;14.23;;
64623;SDS011;51031;50.912;9.242;2022-07-29T00:51:15;18.35;;;10.63;;
64623;SDS011;51031;50.912;9.242;2022-07-29T00:51:31;20.10;;;12.05;;
64623;SDS011;51031;50.912;9.242;2022-07-29T00:51:47;36.83;;;23.77;;
64623;SDS011;51031;50.912;9.242;2022-07-29T00:52:04;43.40;;;29.70;;
64623;SDS011;51031;50.912;9.242;2022-07-29T00:52:21;45.72;;;31.42;;
64623;SDS011;51031;50.912;9.242;2022-07-29T00:52:38;37.92;;;25.80;;
64623;SDS011;51031;50.912;9.242;2022-07-29T00:52:55;15.98;;;9.73;;
64623;SDS011;51031;50.912;9.242;2022-07-29T00:53:13;37.38;;;25.13;;
64623;SDS011;51031;50.912;9.242;2022-07-29T00:53:32;33.58;;;22.48;;
64623;SDS011;51031;50.912;9.242;2022-07-29T00:53:49;27.98;;;18.83;;
64623;SDS011;51031;50.912;9.242;2022-07-29T00:54:06;40.83;;;27.15;;
64623;SDS011;51031;50.912;9.242;2022-07-29T00:54:22;30.40;;;19.05;;
64623;SDS011;51031;50.912;9.242;2022-07-29T00:54:39;10.73;;;5.10;;
64623;SDS011;51031;50.912;9.242;2022-07-29T00:54:56;9.40;;;4.30;;
64623;SDS011;51031;50.912;9.242;2022-07-29T00:55:13;23.25;;;14.02;;
64623;SDS011;51031;50.912;9.242;2022-07-29T00:55:30;29.33;;;17.27;;
64623;SDS011;51031;50.912;9.242;2022-07-29T00:55:45;18.95;;;10.57;;
64623;SDS011;51031;50.912;9.242;2022-07-29T00:56:03;23.95;;;14.52;;
64623;SDS011;51031;50.912;9.242;2022-07-29T00:56:19;17.27;;;9.68;;
64623;SDS011;51031;50.912;9.242;2022-07-29T00:56:35;9.80;;;4.30;;
64623;SDS011;51031;50.912;9.242;2022-07-29T00:56:51;12.80;;;6.43;;
64623;SDS011;51031;50.912;9.242;2022-07-29T00:57:07;26.67;;;16.90;;
64623;SDS011;51031;50.912;9.242;2022-07-29T00:57:23;23.35;;;14.52;;
64623;SDS011;51031;50.912;9.242;2022-07-29T00:57:39;31.98;;;20.63;;
64623;SDS011;51031;50.912;9.242;2022-07-29T00:57:58;29.55;;;17.50;;
64623;SDS011;51031;50.912;9.242;2022-07-29T00:58:14;19.08;;;9.80;;
64623;SDS011;51031;50.912;9.242;2022-07-29T00:58:30;27.05;;;16.27;;
64623;SDS011;51031;50.912;9.242;2022-07-29T00:58:46;30.90;;;19.33;;
64623;SDS011;51031;50.912;9.242;2022-07-29T00:59:03;52.33;;;34.70;;
64623;SDS011;51031;50.912;9.242;2022-07-29T00:59:20;37.00;;;23.55;;
64623;SDS011;51031;50.912;9.242;2022-07-29T00:59:36;33.23;;;21.80;;
64623;SDS011;51031;50.912;9.242;2022-07-29T00:59:51;48.42;;;33.17;;
64623;SDS011;51031;50.912;9.242;2022-07-29T01:00:08;38.08;;;25.40;;
64623;SDS011;51031;50.912;9.242;2022-07-29T01:00:28;27.58;;;17.27;;
64623;SDS011;51031;50.912;9.242;2022-07-29T01:00:46;19.95;;;11.35;;
64623;SDS011;51031;50.912;9.242;2022-07-29T01:01:01;29.42;;;17.75;;
64623;SDS011;51031;50.912;9.242;2022-07-29T01:01:18;40.13;;;25.57;;
64623;SDS011;51031;50.912;9.242;2022-07-29T01:01:34;30.73;;;18.30;;
64623;SDS011;51031;50.912;9.242;2022-07-29T01:01:50;33.73;;;21.10;;
64623;SDS011;51031;50.912;9.242;2022-07-29T01:02:07;34.35;;;22.65;;
64623;SDS011;51031;50.912;9.242;2022-07-29T01:02:23;21.98;;;14.00;;
64623;SDS011;51031;50.912;9.242;2022-07-29T01:02:38;15.03;;;7.57;;
64623;SDS011;51031;50.912;9.242;2022-07-29T01:02:54;21.23;;;11.77;;
64623;SDS011;51031;50.912;9.242;2022-07-29T01:03:10;27.50;;;17.05;;
64623;SDS011;51031;50.912;9.242;2022-07-29T01:03:26;21.98;;;12.75;;
64623;SDS011;51031;50.912;9.242;2022-07-29T01:03:43;16.15;;;8.82;;
64623;SDS011;51031;50.912;9.242;2022-07-29T01:03:59;14.67;;;7.80;;
64623;SDS011;51031;50.912;9.242;2022-07-29T01:04:14;39.88;;;26.00;;
64623;SDS011;51031;50.912;9.242;2022-07-29T01:04:30;47.35;;;30.45;;
64623;SDS011;51031;50.912;9.242;2022-07-29T01:04:49;15.88;;;8.18;;
64623;SDS011;51031;50.912;9.242;2022-07-29T01:05:05;33.75;;;21.40;;
64623;SDS011;51031;50.912;9.242;2022-07-29T01:05:24;37.13;;;23.17;;
64623;SDS011;51031;50.912;9.242;2022-07-29T01:05:41;37.35;;;23.35;;
64623;SDS011;51031;50.912;9.242;2022-07-29T01:05:59;83.90;;;57.22;;
64623;SDS011;51031;50.912;9.242;2022-07-29T01:06:16;93.50;;;63.30;;
64623;SDS011;51031;50.912;9.242;2022-07-29T01:06:33;91.00;;;61.28;;
64623;SDS011;51031;50.912;9.242;2022-07-29T01:06:50;90.32;;;61.90;;
64623;SDS011;51031;50.912;9.242;2022-07-29T01:07:07;87.03;;;59.08;;
64623;SDS011;51031;50.912;9.242;2022-07-29T01:07:23;78.28;;;53.78;;
64623;SDS011;51031;50.912;9.242;2022-07-29T01:07:43;41.88;;;27.30;;
64623;SDS011;51031;50.912;9.242;2022-07-29T01:08:02;21.83;;;10.63;;
64623;SDS011;51031;50.912;9.242;2022-07-29T01:08:18;26.63;;;14.52;;
64623;SDS011;51031;50.912;9.242;2022-07-29T01:08:35;23.58;;;13.85;;
64623;SDS011;51031;50.912;9.242;2022-07-29T01:08:52;29.38;;;17.77;;
64623;SDS011;51031;50.912;9.242;2022-07-29T01:09:08;38.47;;;24.02;;
64623;SDS011;51031;50.912;9.242;2022-07-29T01:09:24;46.95;;;31.15;;
64623;SDS011;51031;50.912;9.242;2022-07-29T01:09:42;47.33;;;31.58;;
64623;SDS011;51031;50.912;9.242;2022-07-29T01:09:59;40.40;;;26.08;;
64623;SDS011;51031;50.912;9.242;2022-07-29T01:10:16;60.83;;;40.03;;
64623;SDS011;51031;50.912;9.242;2022-07-29T01:10:33;42.90;;;28.15;;
64623;SDS011;51031;50.912;9.242;2022-07-29T01:10:52;35.03;;;23.25;;
64623;SDS011;51031;50.912;9.242;2022-07-29T01:11:10;19.33;;;11.32;;
64623;SDS011;51031;50.912;9.242;2022-07-29T01:11:26;17.45;;;9.52;;
64623;SDS011;51031;50.912;9.242;2022-07-29T01:11:42;22.67;;;13.57;;
64623;SDS011;51031;50.912;9.242;2022-07-29T01:12:01;24.17;;;14.88;;
64623;SDS011;51031;50.912;9.242;2022-07-29T01:12:18;30.42;;;18.45;;
64623;SDS011;51031;50.912;9.242;2022-07-29T01:12:39;60.78;;;41.35;;
64623;SDS011;51031;50.912;9.242;2022-07-29T01:12:56;71.85;;;49.00;;
64623;SDS011;51031;50.912;9.242;2022-07-29T01:13:14;61.25;;;40.90;;
64623;SDS011;51031;50.912;9.242;2022-07-29T01:13:32;46.73;;;30.50;;
64623;SDS011;51031;50.912;9.242;2022-07-29T01:13:51;23.93;;;13.10;;
64623;SDS011;51031;50.912;9.242;2022-07-29T01:14:07;21.13;;;11.77;;
64623;SDS011;51031;50.912;9.242;2022-07-29T01:14:24;53.42;;;36.35;;
64623;SDS011;51031;50.912;9.242;2022-07-29T01:14:40;47.25;;;31.05;;
64623;SDS011;51031;50.912;9.242;2022-07-29T01:14:57;23.65;;;13.15;;
64623;SDS011;51031;50.912;9.242;2022-07-29T01:15:17;12.70;;;5.97;;
64623;SDS011;51031;50.912;9.242;2022-07-29T01:15:36;32.70;;;20.75;;
64623;SDS011;51031;50.912;9.242;2022-07-29T01:16:01;22.08;;;12.38;;
64623;SDS011;51031;50.912;9.242;2022-07-29T01:16:25;19.65;;;11.43;;
64623;SDS011;51031;50.912;9.242;2022-07-29T01:16:48;46.38;;;30.33;;
64623;SDS011;51031;50.912;9.242;2022-07-29T01:17:10;43.85;;;27.70;;
64623;SDS011;51031;50.912;9.242;2022-07-29T01:17:31;49.33;;;32.00;;
64623;SDS011;51031;50.912;9.242;2022-07-29T01:17:53;54.55;;;35.67;;
64623;SDS011;51031;50.912;9.242;2022-07-29T01:18:18;14.90;;;7.20;;
64623;SDS011;51031;50.912;9.242;2022-07-29T01:18:39;15.63;;;8.23;;
64623;SDS011;51031;50.912;9.242;2022-07-29T01:19:00;10.93;;;5.57;;
64623;SDS011;51031;50.912;9.242;2022-07-29T01:19:33;19.40;;;11.38;;
64623;SDS011;51031;50.912;9.242;2022-07-29T01:20:01;26.80;;;16.85;;
64623;SDS011;51031;50.912;9.242;2022-07-29T01:20:26;14.38;;;8.10;;
64623;SDS011;51031;50.912;9.242;2022-07-29T01:20:56;22.92;;;14.60;;
64623;SDS011;51031;50.912;9.242;2022-07-29T01:21:27;38.42;;;22.40;;
64623;SDS011;51031;50.912;9.242;2022-07-29T01:22:02;21.83;;;13.07;;
64623;SDS011;51031;50.912;9.242;2022-07-29T01:23:52;36.80;;;22.98;;
64623;SDS011;51031;50.912;9.242;2022-07-29T01:24:33;34.35;;;23.35;;
64623;SDS011;51031;50.912;9.242;2022-07-29T01:25:12;22.38;;;12.73;;
64623;SDS011;51031;50.912;9.242;2022-07-29T01:26:46;30.58;;;19.80;;
64623;SDS011;51031;50.912;9.242;2022-07-29T01:27:08;30.50;;;19.35;;
64623;SDS011;51031;50.912;9.242;2022-07-29T01:27:38;34.42;;;21.60;;
64623;SDS011;51031;50.912;9.242;2022-07-29T01:28:58;23.17;;;14.43;;
64623;SDS011;51031;50.912;9.242;2022-07-29T01:29:20;25.63;;;15.88;;
64623;SDS011;51031;50.912;9.242;2022-07-29T01:29:41;30.38;;;19.15;;
64623;SDS011;51031;50.912;9.242;2022-07-29T01:30:00;22.08;;;12.10;;
64623;SDS011;51031;50.912;9.242;2022-07-29T01:30:17;34.95;;;20.80;;
64623;SDS011;51031;50.912;9.242;2022-07-29T01:30:34;38.38;;;21.35;;
64623;SDS011;51031;50.912;9.242;2022-07-29T01:30:53;54.03;;;33.88;;
64623;SDS011;51031;50.912;9.242;2022-07-29T01:31:10;30.92;;;20.23;;
64623;SDS011;51031;50.912;9.242;2022-07-29T01:31:31;46.60;;;31.42;;
64623;SDS011;51031;50.912;9.242;2022-07-29T01:31:53;51.08;;;33.42;;
64623;SDS011;51031;50.912;9.242;2022-07-29T01:32:13;32.17;;;21.30;;
64623;SDS011;51031;50.912;9.242;2022-07-29T01:32:31;33.60;;;22.00;;
64623;SDS011;51031;50.912;9.242;2022-07-29T01:32:52;21.13;;;12.52;;
64623;SDS011;51031;50.912;9.242;2022-07-29T01:33:13;25.25;;;15.68;;
64623;SDS011;51031;50.912;9.242;2022-07-29T01:33:49;86.57;;;57.78;;
64623;SDS011;51031;50.912;9.242;2022-07-29T01:34:15;56.10;;;38.47;;
64623;SDS011;51031;50.912;9.242;2022-07-29T01:34:37;71.75;;;49.58;;
64623;SDS011;51031;50.912;9.242;2022-07-29T01:34:58;88.88;;;59.28;;
64623;SDS011;51031;50.912;9.242;2022-07-29T01:35:19;85.57;;;59.22;;
64623;SDS011;51031;50.912;9.242;2022-07-29T01:35:39;49.83;;;35.17;;
64623;SDS011;51031;50.912;9.242;2022-07-29T01:35:57;28.42;;;19.13;;
64623;SDS011;51031;50.912;9.242;2022-07-29T01:36:16;30.75;;;20.52;;
64623;SDS011;51031;50.912;9.242;2022-07-29T01:36:35;32.50;;;21.45;;
64623;SDS011;51031;50.912;9.242;2022-07-29T01:36:54;15.82;;;8.02;;
64623;SDS011;51031;50.912;9.242;2022-07-29T01:37:18;20.05;;;11.60;;
64623;SDS011;51031;50.912;9.242;2022-07-29T01:37:38;16.67;;;9.80;;
64623;SDS011;51031;50.912;9.242;2022-07-29T01:37:59;11.90;;;5.85;;
64623;SDS011;51031;50.912;9.242;2022-07-29T01:38:20;19.27;;;11.48;;
64623;SDS011;51031;50.912;9.242;2022-07-29T01:38:40;23.40;;;14.23;;
64623;SDS011;51031;50.912;9.242;2022-07-29T01:39:01;32.67;;;20.67;;
64623;SDS011;51031;50.912;9.242;2022-07-29T01:39:23;31.35;;;19.02;;
64623;SDS011;51031;50.912;9.242;2022-07-29T01:39:42;24.52;;;14.00;;
64623;SDS011;51031;50.912;9.242;2022-07-29T01:40:00;34.35;;;21.77;;
64623;SDS011;51031;50.912;9.242;2022-07-29T01:40:20;55.03;;;37.72;;
64623;SDS011;51031;50.912;9.242;2022-07-29T01:40:40;30.15;;;19.35;;
64623;SDS011;51031;50.912;9.242;2022-07-29T01:41:02;16.98;;;9.93;;
64623;SDS011;51031;50.912;9.242;2022-07-29T01:41:22;12.38;;;5.70;;
64623;SDS011;51031;50.912;9.242;2022-07-29T01:41:40;12.55;;;6.13;;
64623;SDS011;51031;50.912;9.242;2022-07-29T01:42:06;13.23;;;6.65;;
64623;SDS011;51031;50.912;9.242;2022-07-29T01:42:29;18.73;;;9.98;;
64623;SDS011;51031;50.912;9.242;2022-07-29T01:42:50;29.73;;;17.27;;
64623;SDS011;51031;50.912;9.242;2022-07-29T01:43:11;32.90;;;19.95;;
64623;SDS011;51031;50.912;9.242;2022-07-29T01:43:38;26.55;;;15.85;;
64623;SDS011;51031;50.912;9.242;2022-07-29T01:44:01;21.27;;;10.85;;
64623;SDS011;51031;50.912;9.242;2022-07-29T01:44:26;16.27;;;8.93;;
64623;SDS011;51031;50.912;9.242;2022-07-29T01:44:49;36.38;;;23.88;;
64623;SDS011;51031;50.912;9.242;2022-07-29T01:45:12;28.58;;;17.05;;
64623;SDS011;51031;50.912;9.242;2022-07-29T01:45:33;39.22;;;24.88;;
64623;SDS011;51031;50.912;9.242;2022-07-29T01:45:56;31.05;;;18.52;;
64623;SDS011;51031;50.912;9.242;2022-07-29T01:46:17;42.03;;;26.63;;
64623;SDS011;51031;50.912;9.242;2022-07-29T01:46:36;22.00;;;13.35;;
64623;SDS011;51031;50.912;9.242;2022-07-29T01:46:58;37.50;;;24.02;;
64623;SDS011;51031;50.912;9.242;2022-07-29T01:47:20;38.88;;;25.80;;
64623;SDS011;51031;50.912;9.242;2022-07-29T01:47:40;32.65;;;21.70;;
64623;SDS011;51031;50.912;9.242;2022-07-29T01:48:03;28.88;;;19.30;;
64623;SDS011;51031;50.912;9.242;2022-07-29T01:48:27;25.75;;;15.00;;
64623;SDS011;51031;50.912;9.242;2022-07-29T01:48:53;38.72;;;24.50;;
64623;SDS011;51031;50.912;9.242;2022-07-29T01:49:14;74.03;;;51.08;;
64623;SDS011;51031;50.912;9.242;2022-07-29T01:49:35;60.35;;;40.83;;
64623;SDS011;51031;50.912;9.242;2022-07-29T01:49:54;16.25;;;8.73;;
64623;SDS011;51031;50.912;9.242;2022-07-29T01:50:14;33.63;;;20.85;;
64623;SDS011;51031;50.912;9.242;2022-07-29T01:50:33;29.73;;;18.63;;